createdAt,value
2022-11-20T00:00:25.296Z,100008.72
2022-11-20T00:02:51.945Z,100000.13
2022-11-20T00:05:19.249Z,100001.03
2022-11-20T00:07:45.875Z,100002.78
2022-11-20T00:10:14.684Z,99982.38
2022-11-20T00:12:44.078Z,99988.50
2022-11-20T00:15:11.143Z,99988.25
2022-11-20T00:17:40.172Z,99994.34
2022-11-20T00:20:09.115Z,99992.09
2022-11-20T00:22:38.177Z,99993.88
2022-11-20T00:25:04.825Z,99996.50
2022-11-20T00:27:31.369Z,100004.38
2022-11-20T00:30:00.078Z,100003.16
2022-11-20T00:32:26.628Z,99992.66
2022-11-20T00:34:53.189Z,100001.19
2022-11-20T00:37:21.941Z,100006.53
2022-11-20T00:39:48.718Z,100010.41
2022-11-20T00:42:15.464Z,100033.13
2022-11-20T00:44:42.084Z,100032.31
2022-11-20T00:47:08.693Z,100018.03
2022-11-20T00:49:35.369Z,100018.91
2022-11-20T00:52:04.664Z,99998.28
2022-11-20T00:54:33.671Z,100003.56
2022-11-20T00:57:00.224Z,99999.22
2022-11-20T00:59:26.811Z,99991.59
2022-11-20T01:01:53.365Z,100001.06
2022-11-20T01:04:22.001Z,100003.47
2022-11-20T01:06:51.039Z,100005.66
2022-11-20T01:09:17.671Z,100003.75
2022-11-20T01:11:44.986Z,100009.50
2022-11-20T01:14:12.551Z,99997.81
2022-11-20T01:16:42.588Z,99994.84
2022-11-20T01:19:14.800Z,100004.06
2022-11-20T01:21:47.357Z,100000.75
2022-11-20T01:24:15.433Z,100015.44
2022-11-20T01:26:42.566Z,100011.19
2022-11-20T01:29:11.916Z,100006.06
2022-11-20T01:31:40.878Z,100001.72
2022-11-20T01:34:08.366Z,100001.66
2022-11-20T01:36:35.272Z,99988.00
2022-11-20T01:39:03.443Z,99981.25
2022-11-20T01:41:51.936Z,99969.59
2022-11-20T01:44:19.674Z,99976.91
2022-11-20T01:46:59.158Z,99971.94
2022-11-20T01:49:30.020Z,99969.69
2022-11-20T01:52:03.029Z,99975.94
2022-11-20T01:54:32.276Z,99970.22
2022-11-20T01:56:58.802Z,99966.06
2022-11-20T01:59:25.614Z,99963.25
2022-11-20T02:01:52.373Z,99967.59
2022-11-20T02:04:18.970Z,99962.06
2022-11-20T02:06:48.981Z,99956.75
2022-11-20T02:09:16.047Z,99958.13
2022-11-20T02:11:45.067Z,99965.53
2022-11-20T02:14:11.647Z,99964.00
2022-11-20T02:16:41.738Z,99973.63
2022-11-20T02:19:09.162Z,99974.44
2022-11-20T02:21:37.193Z,99962.31
2022-11-20T02:24:15.315Z,99965.22
2022-11-20T02:26:44.936Z,99975.94
2022-11-20T02:29:11.553Z,99974.50
2022-11-20T02:31:44.607Z,99980.72
2022-11-20T02:34:14.128Z,99971.59
2022-11-20T02:36:41.048Z,99947.63
2022-11-20T02:39:07.599Z,99939.16
2022-11-20T02:41:37.736Z,99942.50
2022-11-20T02:44:06.754Z,99954.41
2022-11-20T02:46:35.798Z,99947.00
2022-11-20T02:49:05.163Z,99949.06
2022-11-20T02:51:32.269Z,99945.03
2022-11-20T02:53:58.829Z,99945.19
2022-11-20T02:56:25.444Z,99948.72
2022-11-20T02:58:52.040Z,99944.66
2022-11-20T03:01:18.603Z,99946.78
2022-11-20T03:03:45.270Z,99934.84
2022-11-20T03:06:12.060Z,99926.16
2022-11-20T03:08:38.653Z,99931.94
2022-11-20T03:11:08.149Z,99932.53
2022-11-20T03:13:35.118Z,99930.78
2022-11-20T03:16:28.201Z,99932.84
2022-11-20T03:18:54.792Z,99930.25
2022-11-20T03:21:21.458Z,99933.72
2022-11-20T03:23:50.045Z,99939.72
2022-11-20T03:26:18.320Z,99950.09
2022-11-20T03:28:49.148Z,99953.31
2022-11-20T03:31:16.337Z,99961.97
2022-11-20T03:33:43.135Z,99971.03
2022-11-20T03:36:10.511Z,99952.38
2022-11-20T03:38:37.321Z,99943.19
2022-11-20T03:41:04.645Z,99943.25
2022-11-20T03:43:31.250Z,99942.69
2022-11-20T03:45:57.803Z,99932.31
2022-11-20T03:48:24.418Z,99936.78
2022-11-20T03:50:53.381Z,99936.88
2022-11-20T03:53:22.700Z,99937.81
2022-11-20T03:55:52.410Z,99932.63
2022-11-20T03:58:19.240Z,99935.41
2022-11-20T04:00:50.630Z,99933.88
2022-11-20T04:03:17.420Z,99939.31
2022-11-20T04:05:44.057Z,99933.13
2022-11-20T04:08:10.694Z,99930.41
2022-11-20T04:10:39.606Z,99926.25
2022-11-20T04:13:06.146Z,99931.44
2022-11-20T04:15:38.130Z,99929.19
2022-11-20T04:18:07.824Z,99924.16
2022-11-20T04:20:34.401Z,99924.34
2022-11-20T04:23:03.390Z,99909.97
2022-11-20T04:25:32.488Z,99899.94
2022-11-20T04:28:01.226Z,99900.28
2022-11-20T04:30:30.682Z,99910.22
2022-11-20T04:32:57.382Z,99896.03
2022-11-20T04:35:23.895Z,99899.63
2022-11-20T04:37:53.145Z,99898.91
2022-11-20T04:40:19.821Z,99899.63
2022-11-20T04:42:46.317Z,99903.88
2022-11-20T04:45:12.815Z,99906.31
2022-11-20T04:47:42.277Z,99908.16
2022-11-20T04:50:09.112Z,99905.78
2022-11-20T04:52:35.658Z,99890.81
2022-11-20T04:55:02.163Z,99880.69
2022-11-20T04:57:29.647Z,99876.41
2022-11-20T04:59:56.196Z,99875.53
2022-11-20T05:02:22.944Z,99871.13
2022-11-20T05:04:51.878Z,99881.25
2022-11-20T05:07:20.472Z,99883.91
2022-11-20T05:09:47.052Z,99872.00
2022-11-20T05:12:13.546Z,99890.66
2022-11-20T05:14:42.555Z,99901.97
2022-11-20T05:17:11.070Z,99893.69
2022-11-20T05:19:39.731Z,99884.56
2022-11-20T05:22:06.776Z,99885.38
2022-11-20T05:24:38.021Z,99883.91
2022-11-20T05:27:07.115Z,99869.34
2022-11-20T05:29:36.073Z,99862.44
2022-11-20T05:32:02.573Z,99860.75
2022-11-20T05:34:29.101Z,99856.28
2022-11-20T05:36:58.706Z,99852.59
2022-11-20T05:39:25.275Z,99851.72
2022-11-20T05:42:11.842Z,99850.16
2022-11-20T05:44:38.523Z,99856.44
2022-11-20T05:47:05.147Z,99857.59
2022-11-20T05:49:34.119Z,99857.75
2022-11-20T05:52:03.163Z,99869.03
2022-11-20T05:54:29.701Z,99871.53
2022-11-20T05:56:56.474Z,99873.16
2022-11-20T05:59:23.285Z,99884.34
2022-11-20T06:01:50.048Z,99887.13
2022-11-20T06:04:19.067Z,99885.50
2022-11-20T06:06:45.693Z,99882.94
2022-11-20T06:09:12.254Z,99892.25
2022-11-20T06:11:38.881Z,99881.97
2022-11-20T06:14:05.532Z,99894.03
2022-11-20T06:16:32.234Z,99892.25
2022-11-20T06:18:58.852Z,99883.81
2022-11-20T06:21:25.408Z,99878.81
2022-11-20T06:23:55.378Z,99869.63
2022-11-20T06:26:22.936Z,99864.72
2022-11-20T06:28:52.596Z,99879.97
2022-11-20T06:31:20.134Z,99884.03
2022-11-20T06:33:49.297Z,99885.66
2022-11-20T06:36:17.121Z,99902.78
2022-11-20T06:38:43.767Z,99907.19
2022-11-20T06:41:13.580Z,99904.81
2022-11-20T06:43:42.476Z,99911.22
2022-11-20T06:46:14.714Z,99926.97
2022-11-20T06:48:41.485Z,99919.38
2022-11-20T06:51:08.574Z,99917.91
2022-11-20T06:53:37.465Z,99917.97
2022-11-20T06:56:06.489Z,99913.69
2022-11-20T06:58:33.776Z,99916.28
2022-11-20T07:01:03.554Z,99913.69
2022-11-20T07:03:32.537Z,99912.09
2022-11-20T07:05:59.297Z,99901.09
2022-11-20T07:08:28.165Z,99906.84
2022-11-20T07:10:58.020Z,99908.69
2022-11-20T07:13:27.436Z,99904.78
2022-11-20T07:15:54.047Z,99910.94
2022-11-20T07:18:20.635Z,99908.38
2022-11-20T07:20:49.473Z,99922.94
2022-11-20T07:23:16.001Z,99930.66
2022-11-20T07:25:42.593Z,99942.00
2022-11-20T07:28:11.723Z,99940.44
2022-11-20T07:30:38.923Z,99933.09
2022-11-20T07:33:05.444Z,99929.56
2022-11-20T07:35:32.032Z,99937.63
2022-11-20T07:37:58.586Z,99945.59
2022-11-20T07:40:27.702Z,99937.19
2022-11-20T07:42:57.101Z,99937.44
2022-11-20T07:45:26.439Z,99936.03
2022-11-20T07:47:57.901Z,99929.50
2022-11-20T07:50:24.510Z,99931.47
2022-11-20T07:52:53.487Z,99940.03
2022-11-20T07:55:20.060Z,99942.47
2022-11-20T07:57:46.648Z,99939.75
2022-11-20T08:00:13.535Z,99947.09
2022-11-20T08:02:43.403Z,99941.56
2022-11-20T08:05:10.234Z,99935.94
2022-11-20T08:07:42.350Z,99926.03
2022-11-20T08:10:15.467Z,99913.50
2022-11-20T08:13:03.407Z,99906.91
2022-11-20T08:15:32.901Z,99909.13
2022-11-20T08:18:30.617Z,99911.13
2022-11-20T08:20:55.087Z,99919.25
2022-11-20T08:23:21.622Z,99925.66
2022-11-20T08:25:50.300Z,99918.38
2022-11-20T08:28:21.632Z,99921.41
2022-11-20T08:30:49.144Z,99914.78
2022-11-20T08:33:18.661Z,99912.38
2022-11-20T08:35:48.127Z,99905.47
2022-11-20T08:38:17.474Z,99905.88
2022-11-20T08:41:04.267Z,99920.19
2022-11-20T08:43:30.904Z,99931.94
2022-11-20T08:45:58.276Z,99925.28
2022-11-20T08:48:24.829Z,99930.34
2022-11-20T08:50:51.373Z,99930.63
2022-11-20T08:53:20.353Z,99929.50
2022-11-20T08:55:49.800Z,99923.94
2022-11-20T08:58:16.339Z,99927.81
2022-11-20T09:00:42.924Z,99926.38
2022-11-20T09:03:09.549Z,99928.91
2022-11-20T09:05:36.197Z,99938.19
2022-11-20T09:08:02.773Z,99940.44
2022-11-20T09:10:29.475Z,99940.22
2022-11-20T09:12:58.629Z,99950.88
2022-11-20T09:15:25.479Z,99944.88
2022-11-20T09:17:56.787Z,99956.09
2022-11-20T09:20:23.476Z,99954.47
2022-11-20T09:22:50.065Z,99948.69
2022-11-20T09:25:19.607Z,99960.34
2022-11-20T09:27:48.659Z,99955.28
2022-11-20T09:30:17.822Z,99956.41
2022-11-20T09:32:44.411Z,99952.41
2022-11-20T09:35:11.983Z,99949.19
2022-11-20T09:37:43.573Z,99941.47
2022-11-20T09:40:22.656Z,99936.53
2022-11-20T09:42:55.377Z,99933.38
2022-11-20T09:45:21.964Z,99931.75
2022-11-20T09:48:05.995Z,99930.19
2022-11-20T09:50:33.908Z,99924.13
2022-11-20T09:53:19.337Z,99921.81
2022-11-20T09:55:46.143Z,99931.66
2022-11-20T09:58:33.129Z,99922.97
2022-11-20T10:01:01.723Z,99913.41
2022-11-20T10:03:36.773Z,99918.72
2022-11-20T10:06:03.457Z,99913.63
2022-11-20T10:08:33.292Z,99913.06
2022-11-20T10:11:02.202Z,99905.78
2022-11-20T10:14:11.167Z,99900.53
2022-11-20T10:16:47.288Z,99901.13
2022-11-20T10:19:13.867Z,99883.13
2022-11-20T10:21:40.615Z,99883.38
2022-11-20T10:24:25.798Z,99882.81
2022-11-20T10:26:58.517Z,99865.81
2022-11-20T10:29:34.732Z,99861.53
2022-11-20T10:32:05.661Z,99861.09
2022-11-20T10:34:44.471Z,99874.81
2022-11-20T10:37:13.293Z,99865.38
2022-11-20T10:39:52.034Z,99863.44
2022-11-20T10:42:21.976Z,99869.13
2022-11-20T10:45:05.692Z,99858.69
2022-11-20T10:47:35.291Z,99860.13
2022-11-20T10:50:06.427Z,99856.38
2022-11-20T10:52:33.157Z,99853.47
2022-11-20T10:55:13.264Z,99854.47
2022-11-20T10:58:04.685Z,99856.81
2022-11-20T11:00:36.901Z,99868.53
2022-11-20T11:03:04.192Z,99871.91
2022-11-20T11:06:03.753Z,99871.19
2022-11-20T11:08:33.501Z,99883.03
2022-11-20T11:11:00.550Z,99894.53
2022-11-20T11:13:32.634Z,99892.13
2022-11-20T11:15:59.423Z,99893.34
2022-11-20T11:18:29.411Z,99886.00
2022-11-20T11:20:57.371Z,99885.56
2022-11-20T11:23:36.291Z,99885.63
2022-11-20T11:26:06.533Z,99899.72
2022-11-20T11:28:37.795Z,99902.97
2022-11-20T11:31:06.530Z,99901.56
2022-11-20T11:33:35.547Z,99905.78
2022-11-20T11:36:05.869Z,99893.19
2022-11-20T11:38:37.935Z,99877.06
2022-11-20T11:41:05.148Z,99875.25
2022-11-20T11:43:53.482Z,99882.03
2022-11-20T11:46:38.867Z,99869.72
2022-11-20T11:49:12.483Z,99865.84
2022-11-20T11:51:41.536Z,99875.50
2022-11-20T11:54:14.819Z,99863.63
2022-11-20T11:56:48.267Z,99859.72
2022-11-20T11:59:17.510Z,99857.59
2022-11-20T12:01:45.073Z,99848.88
2022-11-20T12:04:17.061Z,99847.78
2022-11-20T12:06:51.034Z,99851.88
2022-11-20T12:09:17.563Z,99862.56
2022-11-20T12:11:51.203Z,99859.81
2022-11-20T12:14:29.206Z,99864.00
2022-11-20T12:16:57.874Z,99871.72
2022-11-20T12:19:27.281Z,99863.56
2022-11-20T12:22:05.876Z,99869.34
2022-11-20T12:24:32.420Z,99864.34
2022-11-20T12:27:21.943Z,99856.25
2022-11-20T12:29:48.460Z,99855.88
2022-11-20T12:32:34.030Z,99851.44
2022-11-20T12:35:14.938Z,99840.72
2022-11-20T12:37:50.792Z,99843.81
2022-11-20T12:40:20.420Z,99839.94
2022-11-20T12:43:24.108Z,99846.16
2022-11-20T12:46:06.101Z,99846.28
2022-11-20T12:48:36.645Z,99851.88
2022-11-20T12:51:24.045Z,99855.88
2022-11-20T12:53:50.610Z,99858.31
2022-11-20T12:56:26.488Z,99864.47
2022-11-20T12:58:53.083Z,99851.13
2022-11-20T13:01:40.848Z,99861.16
2022-11-20T13:04:16.671Z,99867.81
2022-11-20T13:06:43.660Z,99860.00
2022-11-20T13:09:10.309Z,99864.13
2022-11-20T13:11:49.193Z,99863.03
2022-11-20T13:14:48.323Z,99869.50
2022-11-20T13:17:51.230Z,99868.59
2022-11-20T13:20:20.367Z,99865.06
2022-11-20T13:22:48.014Z,99868.38
2022-11-20T13:25:23.781Z,99865.81
2022-11-20T13:27:50.619Z,99871.06
2022-11-20T13:30:19.345Z,99852.50
2022-11-20T13:32:49.638Z,99852.06
2022-11-20T13:35:24.454Z,99853.13
2022-11-20T13:37:59.869Z,99854.25
2022-11-20T13:40:28.929Z,99842.34
2022-11-20T13:42:56.875Z,99840.56
2022-11-20T13:45:29.777Z,99831.88
2022-11-20T13:47:57.251Z,99821.22
2022-11-20T13:50:48.086Z,99830.00
2022-11-20T13:53:17.136Z,99829.69
2022-11-20T13:55:52.357Z,99822.38
2022-11-20T13:58:25.266Z,99824.63
2022-11-20T14:00:56.415Z,99824.94
2022-11-20T14:03:44.115Z,99822.19
2022-11-20T14:06:15.284Z,99824.19
2022-11-20T14:08:44.787Z,99825.72
2022-11-20T14:11:14.819Z,99819.44
2022-11-20T14:13:51.176Z,99816.88
2022-11-20T14:16:25.236Z,99814.59
2022-11-20T14:18:51.769Z,99822.59
2022-11-20T14:21:25.621Z,99819.44
2022-11-20T14:24:03.611Z,99822.72
2022-11-20T14:26:32.671Z,99814.41
2022-11-20T14:28:59.242Z,99824.84
2022-11-20T14:31:28.629Z,99830.78
2022-11-20T14:33:55.251Z,99829.03
2022-11-20T14:36:23.182Z,99836.16
2022-11-20T14:38:50.907Z,99840.81
2022-11-20T14:41:26.334Z,99846.06
2022-11-20T14:43:59.121Z,99849.16
2022-11-20T14:46:25.792Z,99852.50
2022-11-20T14:48:53.053Z,99853.84
2022-11-20T14:51:33.161Z,99853.31
2022-11-20T14:54:15.713Z,99855.34
2022-11-20T14:56:57.273Z,99854.38
2022-11-20T14:59:27.594Z,99854.97
2022-11-20T15:02:01.300Z,99860.75
2022-11-20T15:04:27.950Z,99859.75
2022-11-20T15:06:55.804Z,99867.66
2022-11-20T15:09:22.622Z,99866.53
2022-11-20T15:11:59.617Z,99872.34
2022-11-20T15:14:28.874Z,99877.53
2022-11-20T15:16:55.587Z,99875.66
2022-11-20T15:19:23.386Z,99870.56
2022-11-20T15:21:51.722Z,99863.06
2022-11-20T15:24:18.414Z,99870.06
2022-11-20T15:26:45.867Z,99865.81
2022-11-20T15:29:15.795Z,99871.06
2022-11-20T15:31:44.320Z,99868.34
2022-11-20T15:34:13.619Z,99870.78
2022-11-20T15:36:43.222Z,99874.31
2022-11-20T15:39:12.616Z,99876.81
2022-11-20T15:41:41.594Z,99880.22
2022-11-20T15:44:08.138Z,99877.56
2022-11-20T15:46:39.561Z,99881.50
2022-11-20T15:49:06.479Z,99881.84
2022-11-20T15:51:33.083Z,99888.44
2022-11-20T15:53:59.786Z,99879.78
2022-11-20T15:56:26.659Z,99881.38
2022-11-20T15:58:53.280Z,99880.69
2022-11-20T16:01:23.369Z,99875.00
2022-11-20T16:03:50.158Z,99872.50
2022-11-20T16:06:22.125Z,99874.81
2022-11-20T16:08:54.156Z,99882.81
2022-11-20T16:11:20.764Z,99879.50
2022-11-20T16:14:06.023Z,99874.63
2022-11-20T16:16:36.403Z,99869.03
2022-11-20T16:19:07.758Z,99871.19
2022-11-20T16:21:35.456Z,99874.81
2022-11-20T16:24:05.925Z,99863.22
2022-11-20T16:26:32.691Z,99861.63
2022-11-20T16:28:59.591Z,99863.59
2022-11-20T16:31:26.139Z,99865.44
2022-11-20T16:33:56.749Z,99867.31
2022-11-20T16:36:26.771Z,99869.19
2022-11-20T16:38:54.308Z,99864.97
2022-11-20T16:41:23.544Z,99860.75
2022-11-20T16:43:54.098Z,99857.41
2022-11-20T16:46:21.924Z,99856.66
2022-11-20T16:49:12.256Z,99853.25
2022-11-20T16:51:43.609Z,99850.69
2022-11-20T16:54:16.488Z,99855.03
2022-11-20T16:56:47.887Z,99855.78
2022-11-20T16:59:14.462Z,99848.88
2022-11-20T17:01:46.361Z,99848.88
2022-11-20T17:04:19.595Z,99848.00
2022-11-20T17:06:46.323Z,99846.16
2022-11-20T17:09:13.156Z,99850.44
2022-11-20T17:11:44.265Z,99842.41
2022-11-20T17:14:11.382Z,99839.75
2022-11-20T17:16:43.133Z,99832.84
2022-11-20T17:19:09.860Z,99832.66
2022-11-20T17:21:39.740Z,99823.22
2022-11-20T17:24:09.911Z,99821.28
2022-11-20T17:26:40.653Z,99817.72
2022-11-20T17:29:14.292Z,99823.25
2022-11-20T17:31:41.086Z,99823.31
2022-11-20T17:34:09.075Z,99820.81
2022-11-20T17:36:44.886Z,99821.59
2022-11-20T17:39:13.010Z,99819.16
2022-11-20T17:41:42.288Z,99820.13
2022-11-20T17:44:09.802Z,99814.97
2022-11-20T17:46:36.419Z,99813.19
2022-11-20T17:49:03.618Z,99798.38
2022-11-20T17:51:35.281Z,99796.38
2022-11-20T17:54:05.986Z,99798.59
2022-11-20T17:56:54.951Z,99796.00
2022-11-20T17:59:24.419Z,99807.09
2022-11-20T18:02:03.472Z,99815.56
2022-11-20T18:04:32.068Z,99811.19
2022-11-20T18:07:09.488Z,99802.22
2022-11-20T18:09:36.759Z,99812.50
2022-11-20T18:12:08.054Z,99813.94
2022-11-20T18:14:45.093Z,99818.94
2022-11-20T18:17:17.251Z,99826.66
2022-11-20T18:20:07.173Z,99832.75
2022-11-20T18:22:36.828Z,99837.16
2022-11-20T18:25:03.548Z,99837.34
2022-11-20T18:27:35.980Z,99844.28
2022-11-20T18:30:05.073Z,99841.63
2022-11-20T18:32:31.909Z,99839.78
2022-11-20T18:34:59.194Z,99850.91
2022-11-20T18:37:26.077Z,99855.38
2022-11-20T18:39:53.215Z,99863.22
2022-11-20T18:42:43.292Z,99861.63
2022-11-20T18:45:12.618Z,99864.94
2022-11-20T18:47:40.227Z,99869.25
2022-11-20T18:50:09.713Z,99876.25
2022-11-20T18:52:44.536Z,99884.66
2022-11-20T18:55:13.799Z,99886.00
2022-11-20T18:57:40.446Z,99878.16
2022-11-20T19:00:12.946Z,99884.22
2022-11-20T19:02:43.556Z,99880.19
2022-11-20T19:05:13.460Z,99874.47
2022-11-20T19:07:40.635Z,99877.03
2022-11-20T19:10:07.787Z,99879.81
2022-11-20T19:12:34.378Z,99882.63
2022-11-20T19:15:01.007Z,99880.22
2022-11-20T19:17:27.595Z,99871.78
2022-11-20T19:19:55.110Z,99878.81
2022-11-20T19:22:21.942Z,99878.03
2022-11-20T19:24:48.546Z,99877.94
2022-11-20T19:27:15.178Z,99890.38
2022-11-20T19:29:44.217Z,99891.22
2022-11-20T19:32:13.161Z,99887.81
2022-11-20T19:34:39.723Z,99876.59
2022-11-20T19:37:06.419Z,99869.91
2022-11-20T19:39:36.324Z,99863.63
2022-11-20T19:42:02.857Z,99859.53
2022-11-20T19:44:32.949Z,99850.84
2022-11-20T19:47:04.375Z,99862.16
2022-11-20T19:49:34.192Z,99858.19
2022-11-20T19:52:03.241Z,99852.50
2022-11-20T19:54:31.966Z,99861.34
2022-11-20T19:56:58.584Z,99861.66
2022-11-20T19:59:25.572Z,99855.84
2022-11-20T20:01:54.858Z,99859.56
2022-11-20T20:04:21.526Z,99841.75
2022-11-20T20:06:48.126Z,99854.56
2022-11-20T20:09:20.348Z,99848.06
2022-11-20T20:11:47.280Z,99847.44
2022-11-20T20:14:14.796Z,99843.13
2022-11-20T20:16:43.833Z,99829.44
2022-11-20T20:19:14.290Z,99820.72
2022-11-20T20:21:44.047Z,99823.03
2022-11-20T20:24:11.042Z,99810.09
2022-11-20T20:26:37.802Z,99813.75
2022-11-20T20:29:04.304Z,99818.03
2022-11-20T20:31:31.449Z,99811.19
2022-11-20T20:34:00.398Z,99823.75
2022-11-20T20:36:27.167Z,99814.97
2022-11-20T20:38:57.239Z,99802.00
2022-11-20T20:41:26.290Z,99805.50
2022-11-20T20:44:11.551Z,99815.63
2022-11-20T20:46:40.906Z,99816.94
2022-11-20T20:49:07.641Z,99820.16
2022-11-20T20:51:34.529Z,99820.22
2022-11-20T20:54:03.725Z,99815.22
2022-11-20T20:56:30.277Z,99828.78
2022-11-20T20:58:59.323Z,99823.09
2022-11-20T21:01:28.983Z,99826.59
2022-11-20T21:04:02.403Z,99816.47
2022-11-20T21:06:33.773Z,99809.59
2022-11-20T21:09:00.447Z,99813.38
2022-11-20T21:11:29.441Z,99815.63
2022-11-20T21:13:58.628Z,99816.75
2022-11-20T21:16:25.375Z,99823.66
2022-11-20T21:18:51.902Z,99830.03
2022-11-20T21:21:37.037Z,99834.38
2022-11-20T21:24:03.881Z,99827.78
2022-11-20T21:26:30.421Z,99821.91
2022-11-20T21:28:59.413Z,99819.25
2022-11-20T21:31:29.967Z,99817.34
2022-11-20T21:33:56.616Z,99823.66
2022-11-20T21:36:26.554Z,99829.59
2022-11-20T21:38:56.078Z,99827.16
2022-11-20T21:41:26.348Z,99825.88
2022-11-20T21:44:16.278Z,99827.78
2022-11-20T21:46:41.343Z,99835.56
2022-11-20T21:49:08.004Z,99836.72
2022-11-20T21:51:34.834Z,99845.44
2022-11-20T21:54:04.010Z,99838.72
2022-11-20T21:56:30.656Z,99819.59
2022-11-20T21:58:59.581Z,99820.28
2022-11-20T22:01:31.655Z,99829.44
2022-11-20T22:03:59.132Z,99822.09
2022-11-20T22:06:26.173Z,99821.03
2022-11-20T22:08:52.961Z,99815.16
2022-11-20T22:11:20.621Z,99822.16
2022-11-20T22:14:05.937Z,99820.78
2022-11-20T22:16:36.061Z,99814.97
2022-11-20T22:19:02.871Z,99810.34
2022-11-20T22:21:30.076Z,99813.19
2022-11-20T22:23:56.963Z,99813.75
2022-11-20T22:26:24.440Z,99803.81
2022-11-20T22:28:53.941Z,99805.88
2022-11-20T22:31:20.998Z,99800.00
2022-11-20T22:33:50.354Z,99797.66
2022-11-20T22:36:18.022Z,99787.09
2022-11-20T22:38:44.618Z,99774.81
2022-11-20T22:41:17.271Z,99777.53
2022-11-20T22:43:44.497Z,99779.88
2022-11-20T22:46:11.167Z,99783.94
2022-11-20T22:48:43.944Z,99772.53
2022-11-20T22:51:14.173Z,99771.88
2022-11-20T22:53:43.543Z,99768.59
2022-11-20T22:56:12.674Z,99770.84
2022-11-20T22:58:43.121Z,99775.31
2022-11-20T23:01:09.640Z,99775.47
2022-11-20T23:03:36.484Z,99767.91
2022-11-20T23:06:03.026Z,99762.13
2022-11-20T23:08:32.412Z,99763.97
2022-11-20T23:11:05.200Z,99764.94
2022-11-20T23:13:31.751Z,99754.66
2022-11-20T23:16:17.500Z,99757.75
2022-11-20T23:18:46.465Z,99743.94
2022-11-20T23:21:18.291Z,99739.53
2022-11-20T23:23:50.806Z,99747.16
2022-11-20T23:26:18.621Z,99744.44
2022-11-20T23:28:47.539Z,99746.13
2022-11-20T23:31:17.447Z,99753.91
2022-11-20T23:33:46.711Z,99751.34
2022-11-20T23:36:13.650Z,99759.91
2022-11-20T23:38:40.237Z,99755.69
2022-11-20T23:41:06.911Z,99753.91
2022-11-20T23:43:33.538Z,99752.22
2022-11-20T23:46:03.336Z,99759.69
2022-11-20T23:48:33.307Z,99757.06
2022-11-20T23:51:03.188Z,99745.81
2022-11-20T23:53:29.959Z,99746.72
2022-11-20T23:55:57.558Z,99747.59
2022-11-20T23:58:30.828Z,99738.19
